sensor_id;sensor_type;location;lat;lon;timestamp;pressure;altitude;pressure_sealevel;temperature;humidity
32851;BME280;19202;48.992;8.390;2023-02-11T00:00:44;102538.66;;;3.40;54.30
32851;BME280;19202;48.992;8.390;2023-02-11T00:06:24;102531.63;;;3.39;54.29
32851;BME280;19202;48.992;8.390;2023-02-11T00:12:04;102546.38;;;3.35;54.80
32851;BME280;19202;48.992;8.390;2023-02-11T00:17:41;102539.31;;;3.33;54.64
32851;BME280;19202;48.992;8.390;2023-02-11T00:23:19;102535.59;;;3.25;55.44
32851;BME280;19202;48.992;8.390;2023-02-11T00:28:57;102529.09;;;3.12;56.99
32851;BME280;19202;48.992;8.390;2023-02-11T00:34:36;102536.16;;;3.15;57.25
32851;BME280;19202;48.992;8.390;2023-02-11T00:40:14;102529.06;;;3.11;57.46
32851;BME280;19202;48.992;8.390;2023-02-11T00:45:53;102529.19;;;3.14;56.76
32851;BME280;19202;48.992;8.390;2023-02-11T00:51:31;102526.63;;;3.17;57.54
32851;BME280;19202;48.992;8.390;2023-02-11T00:57:09;102523.84;;;3.11;58.01
32851;BME280;19202;48.992;8.390;2023-02-11T01:02:46;102516.50;;;2.98;61.38
32851;BME280;19202;48.992;8.390;2023-02-11T01:08:24;102501.44;;;2.91;61.24
32851;BME280;19202;48.992;8.390;2023-02-11T01:14:03;102498.22;;;2.99;59.51
32851;BME280;19202;48.992;8.390;2023-02-11T01:19:42;102485.00;;;2.95;61.60
32851;BME280;19202;48.992;8.390;2023-02-11T01:25:20;102484.34;;;3.02;60.14
32851;BME280;19202;48.992;8.390;2023-02-11T01:30:59;102487.22;;;3.11;59.44
32851;BME280;19202;48.992;8.390;2023-02-11T01:36:37;102483.94;;;3.18;59.28
32851;BME280;19202;48.992;8.390;2023-02-11T01:42:18;102476.28;;;3.24;58.82
32851;BME280;19202;48.992;8.390;2023-02-11T01:47:56;102483.56;;;3.35;58.81
32851;BME280;19202;48.992;8.390;2023-02-11T01:53:35;102469.72;;;3.39;58.49
32851;BME280;19202;48.992;8.390;2023-02-11T01:59:39;102470.63;;;3.40;59.80
32851;BME280;19202;48.992;8.390;2023-02-11T02:05:28;102464.81;;;3.52;59.88
32851;BME280;19202;48.992;8.390;2023-02-11T02:11:08;102467.63;;;3.59;57.69
32851;BME280;19202;48.992;8.390;2023-02-11T02:17:36;102470.28;;;3.61;59.88
32851;BME280;19202;48.992;8.390;2023-02-11T02:23:19;102449.34;;;3.61;59.33
32851;BME280;19202;48.992;8.390;2023-02-11T02:29:20;102450.06;;;3.55;59.96
32851;BME280;19202;48.992;8.390;2023-02-11T02:35:14;102445.59;;;3.51;60.84
32851;BME280;19202;48.992;8.390;2023-02-11T02:41:00;102448.16;;;3.48;59.88
32851;BME280;19202;48.992;8.390;2023-02-11T02:46:40;102436.84;;;3.51;60.99
32851;BME280;19202;48.992;8.390;2023-02-11T03:05:05;102416.50;;;3.39;62.81
32851;BME280;19202;48.992;8.390;2023-02-11T03:10:15;102416.09;;;3.24;63.12
32851;BME280;19202;48.992;8.390;2023-02-11T03:15:56;102424.13;;;3.30;62.32
32851;BME280;19202;48.992;8.390;2023-02-11T03:21:36;102424.19;;;3.33;61.70
32851;BME280;19202;48.992;8.390;2023-02-11T03:27:24;102404.03;;;3.30;63.14
32851;BME280;19202;48.992;8.390;2023-02-11T03:33:28;102398.72;;;3.26;65.70
32851;BME280;19202;48.992;8.390;2023-02-11T03:39:08;102395.22;;;3.25;63.80
32851;BME280;19202;48.992;8.390;2023-02-11T03:45:02;102396.25;;;3.32;64.20
32851;BME280;19202;48.992;8.390;2023-02-11T03:50:43;102404.16;;;3.33;62.98
32851;BME280;19202;48.992;8.390;2023-02-11T03:56:24;102397.09;;;3.31;63.98
32851;BME280;19202;48.992;8.390;2023-02-11T04:02:03;102402.78;;;3.16;64.47
32851;BME280;19202;48.992;8.390;2023-02-11T04:07:41;102424.63;;;3.17;65.32
32851;BME280;19202;48.992;8.390;2023-02-11T04:13:19;102417.69;;;3.19;65.40
32851;BME280;19202;48.992;8.390;2023-02-11T04:18:57;102413.97;;;3.11;67.80
32851;BME280;19202;48.992;8.390;2023-02-11T04:24:35;102398.13;;;3.05;68.06
32851;BME280;19202;48.992;8.390;2023-02-11T04:30:12;102397.22;;;3.04;66.97
32851;BME280;19202;48.992;8.390;2023-02-11T04:35:50;102401.78;;;3.10;67.01
32851;BME280;19202;48.992;8.390;2023-02-11T04:41:28;102394.75;;;3.09;67.78
32851;BME280;19202;48.992;8.390;2023-02-11T04:47:06;102409.03;;;3.20;67.34
32851;BME280;19202;48.992;8.390;2023-02-11T04:52:44;102388.78;;;3.14;68.13
32851;BME280;19202;48.992;8.390;2023-02-11T04:58:22;102372.28;;;3.15;69.78
32851;BME280;19202;48.992;8.390;2023-02-11T05:04:00;102352.44;;;3.23;68.48
32851;BME280;19202;48.992;8.390;2023-02-11T05:09:38;102347.19;;;3.23;67.06
32851;BME280;19202;48.992;8.390;2023-02-11T05:15:16;102339.63;;;3.34;66.66
32851;BME280;19202;48.992;8.390;2023-02-11T05:20:54;102335.16;;;3.30;67.45
32851;BME280;19202;48.992;8.390;2023-02-11T05:26:31;102320.38;;;3.32;66.98
32851;BME280;19202;48.992;8.390;2023-02-11T05:32:09;102327.38;;;3.33;67.61
32851;BME280;19202;48.992;8.390;2023-02-11T05:37:48;102329.22;;;3.37;66.56
32851;BME280;19202;48.992;8.390;2023-02-11T05:43:27;102345.00;;;3.40;65.96
32851;BME280;19202;48.992;8.390;2023-02-11T05:49:04;102352.78;;;3.37;66.64
32851;BME280;19202;48.992;8.390;2023-02-11T05:54:42;102343.88;;;3.30;68.56
32851;BME280;19202;48.992;8.390;2023-02-11T06:00:20;102361.16;;;3.24;68.56
32851;BME280;19202;48.992;8.390;2023-02-11T06:05:58;102371.97;;;3.05;69.16
32851;BME280;19202;48.992;8.390;2023-02-11T06:11:36;102367.47;;;2.99;69.83
32851;BME280;19202;48.992;8.390;2023-02-11T06:17:14;102379.59;;;2.96;69.20
32851;BME280;19202;48.992;8.390;2023-02-11T06:22:52;102376.81;;;2.90;69.74
32851;BME280;19202;48.992;8.390;2023-02-11T06:28:30;102373.91;;;2.81;69.74
32851;BME280;19202;48.992;8.390;2023-02-11T06:34:08;102362.28;;;2.70;70.02
32851;BME280;19202;48.992;8.390;2023-02-11T06:39:47;102369.53;;;2.80;70.35
32851;BME280;19202;48.992;8.390;2023-02-11T06:45:24;102368.44;;;2.72;70.10
32851;BME280;19202;48.992;8.390;2023-02-11T06:51:04;102363.38;;;2.78;69.67
32851;BME280;19202;48.992;8.390;2023-02-11T06:56:43;102374.97;;;2.87;68.14
32851;BME280;19202;48.992;8.390;2023-02-11T07:02:21;102382.97;;;2.92;68.97
32851;BME280;19202;48.992;8.390;2023-02-11T07:07:58;102373.31;;;2.91;69.60
32851;BME280;19202;48.992;8.390;2023-02-11T07:13:37;102366.22;;;2.85;70.50
32851;BME280;19202;48.992;8.390;2023-02-11T07:19:14;102398.50;;;2.87;69.70
32851;BME280;19202;48.992;8.390;2023-02-11T07:24:52;102394.41;;;2.97;69.87
32851;BME280;19202;48.992;8.390;2023-02-11T07:30:30;102420.00;;;3.08;68.71
32851;BME280;19202;48.992;8.390;2023-02-11T07:36:09;102441.09;;;3.14;68.47
32851;BME280;19202;48.992;8.390;2023-02-11T07:41:48;102437.03;;;3.24;68.96
32851;BME280;19202;48.992;8.390;2023-02-11T07:47:26;102425.56;;;3.20;70.27
32851;BME280;19202;48.992;8.390;2023-02-11T07:53:03;102425.28;;;3.41;68.84
32851;BME280;19202;48.992;8.390;2023-02-11T07:58:42;102410.03;;;3.59;68.35
32851;BME280;19202;48.992;8.390;2023-02-11T08:04:20;102411.16;;;3.69;68.68
32851;BME280;19202;48.992;8.390;2023-02-11T08:09:58;102398.41;;;3.82;67.79
32851;BME280;19202;48.992;8.390;2023-02-11T08:15:36;102394.16;;;3.87;67.74
32851;BME280;19202;48.992;8.390;2023-02-11T08:21:14;102393.53;;;3.97;67.51
32851;BME280;19202;48.992;8.390;2023-02-11T08:26:52;102389.00;;;4.27;66.21
32851;BME280;19202;48.992;8.390;2023-02-11T08:32:30;102382.03;;;4.70;63.89
32851;BME280;19202;48.992;8.390;2023-02-11T08:38:10;102379.56;;;5.22;60.79
32851;BME280;19202;48.992;8.390;2023-02-11T08:43:49;102395.84;;;5.49;60.10
32851;BME280;19202;48.992;8.390;2023-02-11T08:49:27;102395.81;;;5.98;58.09
32851;BME280;19202;48.992;8.390;2023-02-11T08:55:07;102395.16;;;6.77;55.81
32851;BME280;19202;48.992;8.390;2023-02-11T09:00:45;102381.91;;;7.49;51.20
32851;BME280;19202;48.992;8.390;2023-02-11T09:06:24;102377.91;;;7.02;53.07
32851;BME280;19202;48.992;8.390;2023-02-11T09:12:03;102378.72;;;6.95;52.81
32851;BME280;19202;48.992;8.390;2023-02-11T09:17:41;102365.34;;;9.35;50.14
32851;BME280;19202;48.992;8.390;2023-02-11T09:23:19;102354.25;;;12.30;43.11
32851;BME280;19202;48.992;8.390;2023-02-11T09:28:57;102363.81;;;17.38;34.87
32851;BME280;19202;48.992;8.390;2023-02-11T09:34:36;102360.47;;;20.36;30.31
32851;BME280;19202;48.992;8.390;2023-02-11T09:40:15;102335.84;;;22.60;25.83
32851;BME280;19202;48.992;8.390;2023-02-11T09:45:54;102362.78;;;23.41;24.45
32851;BME280;19202;48.992;8.390;2023-02-11T09:51:43;102367.34;;;24.60;21.23
32851;BME280;19202;48.992;8.390;2023-02-11T09:57:31;102383.16;;;24.38;22.20
32851;BME280;19202;48.992;8.390;2023-02-11T10:03:40;102390.84;;;21.17;23.98
32851;BME280;19202;48.992;8.390;2023-02-11T10:15:44;102414.41;;;15.13;31.48
32851;BME280;19202;48.992;8.390;2023-02-11T10:27:33;102384.50;;;17.04;30.12
32851;BME280;19202;48.992;8.390;2023-02-11T10:33:22;102372.88;;;18.39;28.00
32851;BME280;19202;48.992;8.390;2023-02-11T10:39:12;102384.50;;;15.75;30.92
32851;BME280;19202;48.992;8.390;2023-02-11T10:45:01;102367.63;;;18.85;28.09
32851;BME280;19202;48.992;8.390;2023-02-11T10:50:39;102357.28;;;22.29;24.73
32851;BME280;19202;48.992;8.390;2023-02-11T10:56:24;102352.56;;;26.02;20.11
32851;BME280;19202;48.992;8.390;2023-02-11T11:02:05;102327.38;;;28.31;19.32
32851;BME280;19202;48.992;8.390;2023-02-11T11:07:59;102327.38;;;28.31;19.32
32851;BME280;19202;48.992;8.390;2023-02-11T11:19:31;102335.75;;;31.45;16.54
32851;BME280;19202;48.992;8.390;2023-02-11T11:25:40;102343.72;;;30.88;15.88
32851;BME280;19202;48.992;8.390;2023-02-11T11:31:22;102333.53;;;30.90;16.05
32851;BME280;19202;48.992;8.390;2023-02-11T11:37:11;102331.22;;;29.71;16.42
32851;BME280;19202;48.992;8.390;2023-02-11T11:48:50;102317.16;;;30.99;16.45
32851;BME280;19202;48.992;8.390;2023-02-11T11:54:30;102315.00;;;31.81;16.39
32851;BME280;19202;48.992;8.390;2023-02-11T12:00:27;102330.69;;;31.01;15.80
32851;BME280;19202;48.992;8.390;2023-02-11T12:30:27;102301.03;;;24.24;22.28
32851;BME280;19202;48.992;8.390;2023-02-11T12:42:21;102298.69;;;22.48;24.56
32851;BME280;19202;48.992;8.390;2023-02-11T12:54:26;102287.81;;;22.17;25.07
32851;BME280;19202;48.992;8.390;2023-02-11T13:00:24;102273.69;;;22.12;25.33
32851;BME280;19202;48.992;8.390;2023-02-11T13:06:16;102277.28;;;21.26;26.69
32851;BME280;19202;48.992;8.390;2023-02-11T13:11:59;102278.34;;;21.40;26.14
32851;BME280;19202;48.992;8.390;2023-02-11T13:18:05;102272.50;;;21.66;25.94
32851;BME280;19202;48.992;8.390;2023-02-11T13:24:00;102277.09;;;21.64;26.41
32851;BME280;19202;48.992;8.390;2023-02-11T13:41:45;102260.91;;;21.47;26.53
32851;BME280;19202;48.992;8.390;2023-02-11T13:47:31;102267.66;;;21.56;26.72
32851;BME280;19202;48.992;8.390;2023-02-11T13:53:10;102272.13;;;21.57;26.43
32851;BME280;19202;48.992;8.390;2023-02-11T13:58:49;102269.63;;;21.69;26.52
32851;BME280;19202;48.992;8.390;2023-02-11T14:04:27;102264.44;;;21.66;26.66
32851;BME280;19202;48.992;8.390;2023-02-11T14:16:22;102263.50;;;21.84;26.65
32851;BME280;19202;48.992;8.390;2023-02-11T14:45:34;102242.94;;;19.59;28.80
32851;BME280;19202;48.992;8.390;2023-02-11T14:51:34;102251.56;;;18.80;30.48
32851;BME280;19202;48.992;8.390;2023-02-11T14:57:17;102259.34;;;18.17;31.63
32851;BME280;19202;48.992;8.390;2023-02-11T15:02:56;102257.47;;;17.17;32.86
32851;BME280;19202;48.992;8.390;2023-02-11T15:08:37;102259.38;;;16.57;33.48
32851;BME280;19202;48.992;8.390;2023-02-11T15:14:27;102269.19;;;15.95;34.50
32851;BME280;19202;48.992;8.390;2023-02-11T15:20:05;102263.50;;;15.40;35.31
32851;BME280;19202;48.992;8.390;2023-02-11T15:25:44;102282.00;;;15.10;35.48
32851;BME280;19202;48.992;8.390;2023-02-11T15:31:32;102285.69;;;14.67;36.41
32851;BME280;19202;48.992;8.390;2023-02-11T15:37:19;102283.81;;;14.30;37.84
32851;BME280;19202;48.992;8.390;2023-02-11T15:43:06;102281.88;;;13.91;38.49
32851;BME280;19202;48.992;8.390;2023-02-11T15:48:49;102292.28;;;13.54;39.71
32851;BME280;19202;48.992;8.390;2023-02-11T15:54:28;102297.06;;;13.36;38.99
32851;BME280;19202;48.992;8.390;2023-02-11T16:00:15;102294.78;;;13.10;40.64
32851;BME280;19202;48.992;8.390;2023-02-11T16:05:54;102304.81;;;12.92;42.21
32851;BME280;19202;48.992;8.390;2023-02-11T16:11:35;102300.69;;;12.69;41.63
32851;BME280;19202;48.992;8.390;2023-02-11T16:22:56;102310.78;;;12.40;42.31
32851;BME280;19202;48.992;8.390;2023-02-11T16:28:35;102310.84;;;12.34;41.92
32851;BME280;19202;48.992;8.390;2023-02-11T16:34:19;102321.59;;;12.25;42.88
32851;BME280;19202;48.992;8.390;2023-02-11T16:39:57;102328.81;;;12.11;43.43
32851;BME280;19202;48.992;8.390;2023-02-11T16:45:36;102323.59;;;12.05;42.96
32851;BME280;19202;48.992;8.390;2023-02-11T16:51:15;102341.28;;;12.03;43.18
32851;BME280;19202;48.992;8.390;2023-02-11T16:56:56;102325.44;;;11.94;42.85
32851;BME280;19202;48.992;8.390;2023-02-11T17:02:35;102329.06;;;11.85;43.85
32851;BME280;19202;48.992;8.390;2023-02-11T17:08:13;102341.53;;;11.76;43.94
32851;BME280;19202;48.992;8.390;2023-02-11T17:13:51;102336.34;;;11.67;44.07
32851;BME280;19202;48.992;8.390;2023-02-11T17:19:29;102336.31;;;11.64;44.43
32851;BME280;19202;48.992;8.390;2023-02-11T17:25:11;102343.44;;;11.59;44.75
32851;BME280;19202;48.992;8.390;2023-02-11T17:30:49;102352.31;;;11.52;44.18
32851;BME280;19202;48.992;8.390;2023-02-11T17:36:27;102339.09;;;11.47;44.74
32851;BME280;19202;48.992;8.390;2023-02-11T17:42:07;102343.53;;;11.44;44.89
32851;BME280;19202;48.992;8.390;2023-02-11T17:47:45;102349.78;;;11.37;44.83
32851;BME280;19202;48.992;8.390;2023-02-11T17:53:25;102354.22;;;11.35;45.34
32851;BME280;19202;48.992;8.390;2023-02-11T17:59:05;102356.84;;;11.36;45.34
32851;BME280;19202;48.992;8.390;2023-02-11T18:04:44;102353.34;;;11.31;44.98
32851;BME280;19202;48.992;8.390;2023-02-11T18:10:23;102364.88;;;11.26;45.48
32851;BME280;19202;48.992;8.390;2023-02-11T18:16:02;102355.16;;;11.23;45.91
32851;BME280;19202;48.992;8.390;2023-02-11T18:21:40;102368.47;;;11.19;45.89
32851;BME280;19202;48.992;8.390;2023-02-11T18:27:19;102367.56;;;11.15;45.83
32851;BME280;19202;48.992;8.390;2023-02-11T18:32:57;102368.50;;;11.13;46.37
32851;BME280;19202;48.992;8.390;2023-02-11T18:38:35;102385.31;;;11.09;46.43
32851;BME280;19202;48.992;8.390;2023-02-11T18:44:13;102388.81;;;11.07;46.77
32851;BME280;19202;48.992;8.390;2023-02-11T18:49:57;102378.25;;;11.06;46.68
32851;BME280;19202;48.992;8.390;2023-02-11T18:55:39;102396.81;;;11.04;47.57
32851;BME280;19202;48.992;8.390;2023-02-11T19:01:28;102391.50;;;11.01;48.55
32851;BME280;19202;48.992;8.390;2023-02-11T19:07:06;102397.72;;;11.00;47.48
32851;BME280;19202;48.992;8.390;2023-02-11T19:12:44;102395.94;;;10.95;47.43
32851;BME280;19202;48.992;8.390;2023-02-11T19:18:22;102385.38;;;10.89;48.26
32851;BME280;19202;48.992;8.390;2023-02-11T19:24:00;102391.63;;;10.80;48.39
32851;BME280;19202;48.992;8.390;2023-02-11T19:29:41;102383.69;;;10.77;48.31
32851;BME280;19202;48.992;8.390;2023-02-11T19:35:19;102395.19;;;10.76;49.55
32851;BME280;19202;48.992;8.390;2023-02-11T19:40:57;102390.72;;;10.77;48.58
32851;BME280;19202;48.992;8.390;2023-02-11T19:46:37;102390.72;;;10.77;48.53
32851;BME280;19202;48.992;8.390;2023-02-11T19:52:16;102370.47;;;10.74;48.45
32851;BME280;19202;48.992;8.390;2023-02-11T19:57:54;102378.41;;;10.70;48.90
32851;BME280;19202;48.992;8.390;2023-02-11T20:03:32;102381.09;;;10.65;48.94
32851;BME280;19202;48.992;8.390;2023-02-11T20:09:13;102377.56;;;10.66;49.14
32851;BME280;19202;48.992;8.390;2023-02-11T20:14:51;102384.59;;;10.63;49.26
32851;BME280;19202;48.992;8.390;2023-02-11T20:20:29;102388.16;;;10.62;49.44
32851;BME280;19202;48.992;8.390;2023-02-11T20:26:08;102375.81;;;10.53;49.75
32851;BME280;19202;48.992;8.390;2023-02-11T20:31:48;102378.50;;;10.47;50.68
32851;BME280;19202;48.992;8.390;2023-02-11T20:37:26;102380.25;;;10.47;50.74
32851;BME280;19202;48.992;8.390;2023-02-11T20:43:04;102383.81;;;10.40;51.18
32851;BME280;19202;48.992;8.390;2023-02-11T20:48:42;102402.34;;;10.38;51.13
32851;BME280;19202;48.992;8.390;2023-02-11T20:54:21;102390.88;;;10.42;50.50
32851;BME280;19202;48.992;8.390;2023-02-11T21:00:00;102406.75;;;10.44;50.82
32851;BME280;19202;48.992;8.390;2023-02-11T21:05:38;102405.88;;;10.37;50.68
32851;BME280;19202;48.992;8.390;2023-02-11T21:11:16;102414.69;;;10.39;50.85
32851;BME280;19202;48.992;8.390;2023-02-11T21:16:54;102392.63;;;10.39;50.63
32851;BME280;19202;48.992;8.390;2023-02-11T21:22:32;102390.00;;;10.37;51.03
32851;BME280;19202;48.992;8.390;2023-02-11T21:28:10;102398.81;;;10.33;51.26
32851;BME280;19202;48.992;8.390;2023-02-11T21:33:49;102395.28;;;10.31;51.28
32851;BME280;19202;48.992;8.390;2023-02-11T21:39:27;102404.13;;;10.33;51.38
32851;BME280;19202;48.992;8.390;2023-02-11T21:45:05;102401.47;;;10.27;51.79
32851;BME280;19202;48.992;8.390;2023-02-11T21:50:45;102399.72;;;10.25;51.90
32851;BME280;19202;48.992;8.390;2023-02-11T21:56:23;102405.91;;;10.22;52.10
32851;BME280;19202;48.992;8.390;2023-02-11T22:02:04;102417.38;;;10.19;52.30
32851;BME280;19202;48.992;8.390;2023-02-11T22:07:42;102405.91;;;10.17;52.46
32851;BME280;19202;48.992;8.390;2023-02-11T22:13:20;102414.75;;;10.12;54.19
32851;BME280;19202;48.992;8.390;2023-02-11T22:18:58;102424.44;;;10.11;54.00
32851;BME280;19202;48.992;8.390;2023-02-11T22:24:38;102418.25;;;10.11;53.74
32851;BME280;19202;48.992;8.390;2023-02-11T22:30:18;102440.25;;;10.08;53.88
32851;BME280;19202;48.992;8.390;2023-02-11T22:35:59;102439.38;;;10.05;55.37
32851;BME280;19202;48.992;8.390;2023-02-11T22:41:40;102446.44;;;10.03;54.38
32851;BME280;19202;48.992;8.390;2023-02-11T22:47:18;102448.22;;;10.01;54.28
32851;BME280;19202;48.992;8.390;2023-02-11T22:52:56;102432.34;;;9.98;54.24
32851;BME280;19202;48.992;8.390;2023-02-11T22:58:35;102433.22;;;9.95;54.60
32851;BME280;19202;48.992;8.390;2023-02-11T23:04:14;102432.34;;;9.95;54.73
32851;BME280;19202;48.992;8.390;2023-02-11T23:09:52;102433.22;;;9.92;54.89
32851;BME280;19202;48.992;8.390;2023-02-11T23:15:31;102449.09;;;9.91;54.57
32851;BME280;19202;48.992;8.390;2023-02-11T23:21:14;102434.13;;;9.90;54.89
32851;BME280;19202;48.992;8.390;2023-02-11T23:26:53;102442.03;;;9.88;54.94
32851;BME280;19202;48.992;8.390;2023-02-11T23:32:31;102440.28;;;9.87;54.86
32851;BME280;19202;48.992;8.390;2023-02-11T23:38:08;102432.34;;;9.86;55.64
32851;BME280;19202;48.992;8.390;2023-02-11T23:43:52;102439.38;;;9.82;56.89
32851;BME280;19202;48.992;8.390;2023-02-11T23:49:30;102438.50;;;9.80;55.91
32851;BME280;19202;48.992;8.390;2023-02-11T23:55:09;102434.13;;;9.78;55.68
